sensor_id;sensor_type;location;lat;lon;timestamp;temperature;humidity
12307;DHT22;6216;51.146;7.008;2022-10-13T00:00:37;13.30;99.90
12307;DHT22;6216;51.146;7.008;2022-10-13T00:03:06;13.30;99.90
12307;DHT22;6216;51.146;7.008;2022-10-13T00:05:34;13.30;99.90
12307;DHT22;6216;51.146;7.008;2022-10-13T00:08:04;13.30;99.90
12307;DHT22;6216;51.146;7.008;2022-10-13T00:10:35;13.20;99.90
12307;DHT22;6216;51.146;7.008;2022-10-13T00:13:03;13.20;99.90
12307;DHT22;6216;51.146;7.008;2022-10-13T00:15:31;13.20;99.90
12307;DHT22;6216;51.146;7.008;2022-10-13T00:17:59;13.20;99.90
12307;DHT22;6216;51.146;7.008;2022-10-13T00:20:27;13.20;99.90
12307;DHT22;6216;51.146;7.008;2022-10-13T00:22:55;13.20;99.90
12307;DHT22;6216;51.146;7.008;2022-10-13T00:25:24;13.20;99.90
12307;DHT22;6216;51.146;7.008;2022-10-13T00:27:52;13.20;99.90
12307;DHT22;6216;51.146;7.008;2022-10-13T00:30:20;13.20;99.90
12307;DHT22;6216;51.146;7.008;2022-10-13T00:32:48;13.20;99.90
12307;DHT22;6216;51.146;7.008;2022-10-13T00:35:16;13.20;99.90
12307;DHT22;6216;51.146;7.008;2022-10-13T00:37:44;13.20;99.90
12307;DHT22;6216;51.146;7.008;2022-10-13T00:40:11;13.10;99.90
12307;DHT22;6216;51.146;7.008;2022-10-13T00:42:41;13.00;99.90
12307;DHT22;6216;51.146;7.008;2022-10-13T00:45:20;13.00;99.90
12307;DHT22;6216;51.146;7.008;2022-10-13T00:47:51;13.00;99.90
12307;DHT22;6216;51.146;7.008;2022-10-13T00:50:22;13.00;99.90
12307;DHT22;6216;51.146;7.008;2022-10-13T00:52:52;13.00;99.90
12307;DHT22;6216;51.146;7.008;2022-10-13T00:55:23;12.90;99.90
12307;DHT22;6216;51.146;7.008;2022-10-13T00:57:54;13.00;99.90
12307;DHT22;6216;51.146;7.008;2022-10-13T01:00:31;13.00;99.90
12307;DHT22;6216;51.146;7.008;2022-10-13T01:03:00;13.00;99.90
12307;DHT22;6216;51.146;7.008;2022-10-13T01:05:29;13.00;99.90
12307;DHT22;6216;51.146;7.008;2022-10-13T01:07:58;12.90;99.90
12307;DHT22;6216;51.146;7.008;2022-10-13T01:10:36;13.00;99.90
12307;DHT22;6216;51.146;7.008;2022-10-13T01:13:14;12.90;99.90
12307;DHT22;6216;51.146;7.008;2022-10-13T01:15:50;12.90;99.90
12307;DHT22;6216;51.146;7.008;2022-10-13T01:18:25;12.90;99.90
12307;DHT22;6216;51.146;7.008;2022-10-13T01:21:05;12.90;99.90
12307;DHT22;6216;51.146;7.008;2022-10-13T01:24:10;12.90;99.90
12307;DHT22;6216;51.146;7.008;2022-10-13T01:27:12;12.80;99.90
12307;DHT22;6216;51.146;7.008;2022-10-13T01:30:08;12.90;99.90
12307;DHT22;6216;51.146;7.008;2022-10-13T01:33:00;12.80;99.90
12307;DHT22;6216;51.146;7.008;2022-10-13T01:35:39;12.90;99.90
12307;DHT22;6216;51.146;7.008;2022-10-13T01:38:16;12.80;99.90
12307;DHT22;6216;51.146;7.008;2022-10-13T01:40:52;12.90;99.90
12307;DHT22;6216;51.146;7.008;2022-10-13T01:43:26;12.80;99.90
12307;DHT22;6216;51.146;7.008;2022-10-13T01:46:00;12.80;99.90
12307;DHT22;6216;51.146;7.008;2022-10-13T01:48:32;12.80;99.90
12307;DHT22;6216;51.146;7.008;2022-10-13T01:51:00;12.80;99.90
12307;DHT22;6216;51.146;7.008;2022-10-13T01:53:29;12.80;99.90
12307;DHT22;6216;51.146;7.008;2022-10-13T01:55:58;12.80;99.90
12307;DHT22;6216;51.146;7.008;2022-10-13T01:58:28;12.80;99.90
12307;DHT22;6216;51.146;7.008;2022-10-13T02:01:05;12.80;99.90
12307;DHT22;6216;51.146;7.008;2022-10-13T02:03:42;12.80;99.90
12307;DHT22;6216;51.146;7.008;2022-10-13T02:06:18;12.80;99.90
12307;DHT22;6216;51.146;7.008;2022-10-13T02:08:55;12.70;99.90
12307;DHT22;6216;51.146;7.008;2022-10-13T02:11:26;12.70;99.90
12307;DHT22;6216;51.146;7.008;2022-10-13T02:14:00;12.80;99.90
12307;DHT22;6216;51.146;7.008;2022-10-13T02:16:35;12.90;99.90
12307;DHT22;6216;51.146;7.008;2022-10-13T02:19:05;12.80;99.90
12307;DHT22;6216;51.146;7.008;2022-10-13T02:21:35;12.80;99.90
12307;DHT22;6216;51.146;7.008;2022-10-13T02:24:03;12.90;99.90
12307;DHT22;6216;51.146;7.008;2022-10-13T02:26:33;12.90;99.90
12307;DHT22;6216;51.146;7.008;2022-10-13T02:29:06;13.00;99.90
12307;DHT22;6216;51.146;7.008;2022-10-13T02:31:36;13.00;99.90
12307;DHT22;6216;51.146;7.008;2022-10-13T02:34:05;13.10;99.90
12307;DHT22;6216;51.146;7.008;2022-10-13T02:36:33;13.10;99.90
12307;DHT22;6216;51.146;7.008;2022-10-13T02:39:01;13.10;99.90
12307;DHT22;6216;51.146;7.008;2022-10-13T02:41:29;13.00;99.90
12307;DHT22;6216;51.146;7.008;2022-10-13T02:43:57;13.00;99.90
12307;DHT22;6216;51.146;7.008;2022-10-13T02:46:25;13.00;99.90
12307;DHT22;6216;51.146;7.008;2022-10-13T02:48:54;13.00;99.90
12307;DHT22;6216;51.146;7.008;2022-10-13T02:51:22;13.00;99.90
12307;DHT22;6216;51.146;7.008;2022-10-13T02:53:50;13.00;99.90
12307;DHT22;6216;51.146;7.008;2022-10-13T02:56:18;13.00;99.90
12307;DHT22;6216;51.146;7.008;2022-10-13T02:58:46;13.10;99.90
12307;DHT22;6216;51.146;7.008;2022-10-13T03:01:14;13.10;99.90
12307;DHT22;6216;51.146;7.008;2022-10-13T03:03:42;13.10;99.90
12307;DHT22;6216;51.146;7.008;2022-10-13T03:06:12;13.10;99.90
12307;DHT22;6216;51.146;7.008;2022-10-13T03:08:39;13.10;99.90
12307;DHT22;6216;51.146;7.008;2022-10-13T03:11:07;13.10;99.90
12307;DHT22;6216;51.146;7.008;2022-10-13T03:13:35;13.10;99.90
12307;DHT22;6216;51.146;7.008;2022-10-13T03:16:04;13.10;99.90
12307;DHT22;6216;51.146;7.008;2022-10-13T03:18:32;13.10;99.90
12307;DHT22;6216;51.146;7.008;2022-10-13T03:21:02;13.20;99.90
12307;DHT22;6216;51.146;7.008;2022-10-13T03:23:32;13.10;99.90
12307;DHT22;6216;51.146;7.008;2022-10-13T03:26:00;13.10;99.90
12307;DHT22;6216;51.146;7.008;2022-10-13T03:28:28;13.00;99.90
12307;DHT22;6216;51.146;7.008;2022-10-13T03:31:00;12.90;99.90
12307;DHT22;6216;51.146;7.008;2022-10-13T03:33:28;12.80;99.90
12307;DHT22;6216;51.146;7.008;2022-10-13T03:35:57;12.80;99.90
12307;DHT22;6216;51.146;7.008;2022-10-13T03:38:26;12.80;99.90
12307;DHT22;6216;51.146;7.008;2022-10-13T03:40:55;12.80;99.90
12307;DHT22;6216;51.146;7.008;2022-10-13T03:43:23;12.70;99.90
12307;DHT22;6216;51.146;7.008;2022-10-13T03:45:55;12.70;99.90
12307;DHT22;6216;51.146;7.008;2022-10-13T03:48:23;12.70;99.90
12307;DHT22;6216;51.146;7.008;2022-10-13T03:50:51;12.80;99.90
12307;DHT22;6216;51.146;7.008;2022-10-13T03:53:19;12.80;99.90
12307;DHT22;6216;51.146;7.008;2022-10-13T03:55:48;12.80;99.90
12307;DHT22;6216;51.146;7.008;2022-10-13T03:58:18;12.80;99.90
12307;DHT22;6216;51.146;7.008;2022-10-13T04:00:46;12.80;99.90
12307;DHT22;6216;51.146;7.008;2022-10-13T04:03:15;12.80;99.90
12307;DHT22;6216;51.146;7.008;2022-10-13T04:05:43;12.80;99.90
12307;DHT22;6216;51.146;7.008;2022-10-13T04:08:11;12.80;99.90
12307;DHT22;6216;51.146;7.008;2022-10-13T04:10:39;12.90;99.90
12307;DHT22;6216;51.146;7.008;2022-10-13T04:13:07;12.90;99.90
12307;DHT22;6216;51.146;7.008;2022-10-13T04:15:37;12.90;99.90
12307;DHT22;6216;51.146;7.008;2022-10-13T04:18:07;12.90;99.90
12307;DHT22;6216;51.146;7.008;2022-10-13T04:20:36;12.80;99.90
12307;DHT22;6216;51.146;7.008;2022-10-13T04:23:05;12.90;99.90
12307;DHT22;6216;51.146;7.008;2022-10-13T04:25:34;12.90;99.90
12307;DHT22;6216;51.146;7.008;2022-10-13T04:28:02;12.90;99.90
12307;DHT22;6216;51.146;7.008;2022-10-13T04:30:31;12.90;99.90
12307;DHT22;6216;51.146;7.008;2022-10-13T04:33:01;12.80;99.90
12307;DHT22;6216;51.146;7.008;2022-10-13T04:35:29;12.90;99.90
12307;DHT22;6216;51.146;7.008;2022-10-13T04:37:57;12.90;99.90
12307;DHT22;6216;51.146;7.008;2022-10-13T04:40:25;13.00;99.90
12307;DHT22;6216;51.146;7.008;2022-10-13T04:42:53;13.00;99.90
12307;DHT22;6216;51.146;7.008;2022-10-13T04:45:21;12.90;99.90
12307;DHT22;6216;51.146;7.008;2022-10-13T04:47:49;12.80;99.90
12307;DHT22;6216;51.146;7.008;2022-10-13T04:50:19;12.70;99.90
12307;DHT22;6216;51.146;7.008;2022-10-13T04:52:47;12.70;99.90
12307;DHT22;6216;51.146;7.008;2022-10-13T04:55:14;12.70;99.90
12307;DHT22;6216;51.146;7.008;2022-10-13T04:57:42;12.80;99.90
12307;DHT22;6216;51.146;7.008;2022-10-13T05:00:11;12.80;99.90
12307;DHT22;6216;51.146;7.008;2022-10-13T05:02:39;12.70;99.90
12307;DHT22;6216;51.146;7.008;2022-10-13T05:05:08;12.80;99.90
12307;DHT22;6216;51.146;7.008;2022-10-13T05:07:37;12.70;99.90
12307;DHT22;6216;51.146;7.008;2022-10-13T05:10:05;12.80;99.90
12307;DHT22;6216;51.146;7.008;2022-10-13T05:12:34;12.80;99.90
12307;DHT22;6216;51.146;7.008;2022-10-13T05:15:02;12.80;99.90
12307;DHT22;6216;51.146;7.008;2022-10-13T05:17:30;12.90;99.90
12307;DHT22;6216;51.146;7.008;2022-10-13T05:20:01;12.90;99.90
12307;DHT22;6216;51.146;7.008;2022-10-13T05:22:29;12.90;99.90
12307;DHT22;6216;51.146;7.008;2022-10-13T05:24:58;12.90;99.90
12307;DHT22;6216;51.146;7.008;2022-10-13T05:27:26;13.00;99.90
12307;DHT22;6216;51.146;7.008;2022-10-13T05:29:54;13.00;99.90
12307;DHT22;6216;51.146;7.008;2022-10-13T05:32:22;12.90;99.90
12307;DHT22;6216;51.146;7.008;2022-10-13T05:34:50;13.00;99.90
12307;DHT22;6216;51.146;7.008;2022-10-13T05:37:18;13.00;99.90
12307;DHT22;6216;51.146;7.008;2022-10-13T05:39:53;13.00;99.90
12307;DHT22;6216;51.146;7.008;2022-10-13T05:42:24;12.90;99.90
12307;DHT22;6216;51.146;7.008;2022-10-13T05:44:58;12.90;99.90
12307;DHT22;6216;51.146;7.008;2022-10-13T05:47:26;12.90;99.90
12307;DHT22;6216;51.146;7.008;2022-10-13T05:49:54;13.00;99.90
12307;DHT22;6216;51.146;7.008;2022-10-13T05:52:22;13.10;99.90
12307;DHT22;6216;51.146;7.008;2022-10-13T05:55:00;13.10;99.90
12307;DHT22;6216;51.146;7.008;2022-10-13T05:57:33;13.00;99.90
12307;DHT22;6216;51.146;7.008;2022-10-13T06:00:06;13.00;99.90
12307;DHT22;6216;51.146;7.008;2022-10-13T06:02:37;13.00;99.90
12307;DHT22;6216;51.146;7.008;2022-10-13T06:05:11;13.00;99.90
12307;DHT22;6216;51.146;7.008;2022-10-13T06:07:39;12.90;99.90
12307;DHT22;6216;51.146;7.008;2022-10-13T06:10:08;12.90;99.90
12307;DHT22;6216;51.146;7.008;2022-10-13T06:12:38;12.90;99.90
12307;DHT22;6216;51.146;7.008;2022-10-13T06:15:07;12.90;99.90
12307;DHT22;6216;51.146;7.008;2022-10-13T06:17:36;12.90;99.90
12307;DHT22;6216;51.146;7.008;2022-10-13T06:20:05;12.90;99.90
12307;DHT22;6216;51.146;7.008;2022-10-13T06:22:34;12.80;99.90
12307;DHT22;6216;51.146;7.008;2022-10-13T06:25:03;12.80;99.90
12307;DHT22;6216;51.146;7.008;2022-10-13T06:27:32;12.80;99.90
12307;DHT22;6216;51.146;7.008;2022-10-13T06:30:01;12.80;99.90
12307;DHT22;6216;51.146;7.008;2022-10-13T06:32:29;12.80;99.90
12307;DHT22;6216;51.146;7.008;2022-10-13T06:34:57;12.80;99.90
12307;DHT22;6216;51.146;7.008;2022-10-13T06:37:25;12.80;99.90
12307;DHT22;6216;51.146;7.008;2022-10-13T06:39:53;12.80;99.90
12307;DHT22;6216;51.146;7.008;2022-10-13T06:42:21;12.80;99.90
12307;DHT22;6216;51.146;7.008;2022-10-13T06:44:49;12.80;99.90
12307;DHT22;6216;51.146;7.008;2022-10-13T06:47:18;12.80;99.90
12307;DHT22;6216;51.146;7.008;2022-10-13T06:49:46;12.80;99.90
12307;DHT22;6216;51.146;7.008;2022-10-13T06:52:14;12.80;99.90
12307;DHT22;6216;51.146;7.008;2022-10-13T06:54:42;12.90;99.90
12307;DHT22;6216;51.146;7.008;2022-10-13T06:57:12;12.90;99.90
12307;DHT22;6216;51.146;7.008;2022-10-13T06:59:40;12.90;99.90
12307;DHT22;6216;51.146;7.008;2022-10-13T07:02:10;12.90;99.90
12307;DHT22;6216;51.146;7.008;2022-10-13T07:04:39;13.00;99.90
12307;DHT22;6216;51.146;7.008;2022-10-13T07:07:07;13.00;99.90
12307;DHT22;6216;51.146;7.008;2022-10-13T07:09:35;13.00;99.90
12307;DHT22;6216;51.146;7.008;2022-10-13T07:12:12;13.00;99.90
12307;DHT22;6216;51.146;7.008;2022-10-13T07:14:39;13.10;99.90
12307;DHT22;6216;51.146;7.008;2022-10-13T07:17:09;13.10;99.90
12307;DHT22;6216;51.146;7.008;2022-10-13T07:19:38;13.20;99.90
12307;DHT22;6216;51.146;7.008;2022-10-13T07:22:06;13.20;99.90
12307;DHT22;6216;51.146;7.008;2022-10-13T07:24:34;13.30;99.90
12307;DHT22;6216;51.146;7.008;2022-10-13T07:27:02;13.30;99.90
12307;DHT22;6216;51.146;7.008;2022-10-13T07:29:33;13.20;99.90
12307;DHT22;6216;51.146;7.008;2022-10-13T07:32:01;13.20;99.90
12307;DHT22;6216;51.146;7.008;2022-10-13T07:34:29;13.30;99.90
12307;DHT22;6216;51.146;7.008;2022-10-13T07:36:59;13.30;99.90
12307;DHT22;6216;51.146;7.008;2022-10-13T07:39:26;13.30;99.90
12307;DHT22;6216;51.146;7.008;2022-10-13T07:41:54;13.30;99.90
12307;DHT22;6216;51.146;7.008;2022-10-13T07:44:22;13.30;99.90
12307;DHT22;6216;51.146;7.008;2022-10-13T07:46:50;13.30;99.90
12307;DHT22;6216;51.146;7.008;2022-10-13T07:49:18;13.30;99.90
12307;DHT22;6216;51.146;7.008;2022-10-13T07:51:46;13.30;99.90
12307;DHT22;6216;51.146;7.008;2022-10-13T07:54:15;13.40;99.90
12307;DHT22;6216;51.146;7.008;2022-10-13T07:56:50;13.40;99.90
12307;DHT22;6216;51.146;7.008;2022-10-13T07:59:18;13.40;99.90
12307;DHT22;6216;51.146;7.008;2022-10-13T08:01:46;13.40;99.90
12307;DHT22;6216;51.146;7.008;2022-10-13T08:04:14;13.40;99.90
12307;DHT22;6216;51.146;7.008;2022-10-13T08:06:42;13.40;99.90
12307;DHT22;6216;51.146;7.008;2022-10-13T08:09:10;13.40;99.90
12307;DHT22;6216;51.146;7.008;2022-10-13T08:11:39;13.50;99.90
12307;DHT22;6216;51.146;7.008;2022-10-13T08:14:10;13.50;99.90
12307;DHT22;6216;51.146;7.008;2022-10-13T08:16:38;13.60;99.90
12307;DHT22;6216;51.146;7.008;2022-10-13T08:19:09;13.60;99.90
12307;DHT22;6216;51.146;7.008;2022-10-13T08:21:37;13.70;99.90
12307;DHT22;6216;51.146;7.008;2022-10-13T08:24:24;13.80;99.90
12307;DHT22;6216;51.146;7.008;2022-10-13T08:26:54;13.80;99.90
12307;DHT22;6216;51.146;7.008;2022-10-13T08:29:22;13.90;99.90
12307;DHT22;6216;51.146;7.008;2022-10-13T08:31:51;14.00;99.90
12307;DHT22;6216;51.146;7.008;2022-10-13T08:34:19;14.00;99.90
12307;DHT22;6216;51.146;7.008;2022-10-13T08:36:47;14.00;99.90
12307;DHT22;6216;51.146;7.008;2022-10-13T08:39:18;14.00;99.90
12307;DHT22;6216;51.146;7.008;2022-10-13T08:41:46;14.00;99.90
12307;DHT22;6216;51.146;7.008;2022-10-13T08:44:21;14.10;99.90
12307;DHT22;6216;51.146;7.008;2022-10-13T08:47:15;14.10;99.90
12307;DHT22;6216;51.146;7.008;2022-10-13T08:49:44;14.10;99.90
12307;DHT22;6216;51.146;7.008;2022-10-13T08:52:17;14.20;99.90
12307;DHT22;6216;51.146;7.008;2022-10-13T08:54:46;14.30;99.90
12307;DHT22;6216;51.146;7.008;2022-10-13T08:57:14;14.30;99.90
12307;DHT22;6216;51.146;7.008;2022-10-13T08:59:45;14.30;99.90
12307;DHT22;6216;51.146;7.008;2022-10-13T09:02:15;14.40;99.90
12307;DHT22;6216;51.146;7.008;2022-10-13T09:04:49;14.40;99.90
12307;DHT22;6216;51.146;7.008;2022-10-13T09:07:22;14.40;99.90
12307;DHT22;6216;51.146;7.008;2022-10-13T09:09:53;14.40;99.90
12307;DHT22;6216;51.146;7.008;2022-10-13T09:12:22;14.50;99.90
12307;DHT22;6216;51.146;7.008;2022-10-13T09:15:00;14.60;99.90
12307;DHT22;6216;51.146;7.008;2022-10-13T09:17:30;14.60;99.90
12307;DHT22;6216;51.146;7.008;2022-10-13T09:20:00;14.70;99.90
12307;DHT22;6216;51.146;7.008;2022-10-13T09:22:30;14.70;99.90
12307;DHT22;6216;51.146;7.008;2022-10-13T09:25:08;14.80;99.90
12307;DHT22;6216;51.146;7.008;2022-10-13T09:27:48;14.90;99.90
12307;DHT22;6216;51.146;7.008;2022-10-13T09:30:30;15.00;99.90
12307;DHT22;6216;51.146;7.008;2022-10-13T09:33:15;15.20;99.90
12307;DHT22;6216;51.146;7.008;2022-10-13T09:35:47;15.40;99.90
12307;DHT22;6216;51.146;7.008;2022-10-13T09:38:17;15.70;99.90
12307;DHT22;6216;51.146;7.008;2022-10-13T09:40:56;15.90;99.90
12307;DHT22;6216;51.146;7.008;2022-10-13T09:43:29;16.10;99.90
12307;DHT22;6216;51.146;7.008;2022-10-13T09:46:00;16.30;99.90
12307;DHT22;6216;51.146;7.008;2022-10-13T09:48:30;16.30;99.90
12307;DHT22;6216;51.146;7.008;2022-10-13T09:50:59;16.40;99.90
12307;DHT22;6216;51.146;7.008;2022-10-13T09:53:30;16.50;99.90
12307;DHT22;6216;51.146;7.008;2022-10-13T09:56:14;16.50;99.90
12307;DHT22;6216;51.146;7.008;2022-10-13T09:58:47;16.60;99.90
12307;DHT22;6216;51.146;7.008;2022-10-13T10:01:22;16.60;99.90
12307;DHT22;6216;51.146;7.008;2022-10-13T10:03:52;16.70;99.90
12307;DHT22;6216;51.146;7.008;2022-10-13T10:06:21;16.80;99.90
12307;DHT22;6216;51.146;7.008;2022-10-13T10:08:56;17.10;99.90
12307;DHT22;6216;51.146;7.008;2022-10-13T10:11:34;17.30;99.90
12307;DHT22;6216;51.146;7.008;2022-10-13T10:14:14;17.50;99.90
12307;DHT22;6216;51.146;7.008;2022-10-13T10:16:48;17.50;99.90
12307;DHT22;6216;51.146;7.008;2022-10-13T10:19:21;17.40;99.90
12307;DHT22;6216;51.146;7.008;2022-10-13T10:21:56;17.50;99.90
12307;DHT22;6216;51.146;7.008;2022-10-13T10:24:35;17.50;99.90
12307;DHT22;6216;51.146;7.008;2022-10-13T10:27:10;17.50;99.90
12307;DHT22;6216;51.146;7.008;2022-10-13T10:29:45;17.50;99.90
12307;DHT22;6216;51.146;7.008;2022-10-13T10:32:24;17.50;99.90
12307;DHT22;6216;51.146;7.008;2022-10-13T10:34:57;17.50;99.90
12307;DHT22;6216;51.146;7.008;2022-10-13T10:37:37;17.40;99.90
12307;DHT22;6216;51.146;7.008;2022-10-13T10:40:18;17.30;99.90
12307;DHT22;6216;51.146;7.008;2022-10-13T10:45:46;17.20;99.90
12307;DHT22;6216;51.146;7.008;2022-10-13T10:48:18;17.10;99.90
12307;DHT22;6216;51.146;7.008;2022-10-13T10:50:49;17.20;99.90
12307;DHT22;6216;51.146;7.008;2022-10-13T10:53:22;17.10;99.90
12307;DHT22;6216;51.146;7.008;2022-10-13T10:55:59;17.30;99.90
12307;DHT22;6216;51.146;7.008;2022-10-13T10:58:34;17.30;99.90
12307;DHT22;6216;51.146;7.008;2022-10-13T11:01:20;17.30;99.90
12307;DHT22;6216;51.146;7.008;2022-10-13T11:03:57;17.30;99.90
12307;DHT22;6216;51.146;7.008;2022-10-13T11:06:33;17.40;99.90
12307;DHT22;6216;51.146;7.008;2022-10-13T11:09:03;17.50;99.90
12307;DHT22;6216;51.146;7.008;2022-10-13T11:11:39;17.70;99.90
12307;DHT22;6216;51.146;7.008;2022-10-13T11:17:35;18.00;99.90
12307;DHT22;6216;51.146;7.008;2022-10-13T11:23:31;17.90;99.90
12307;DHT22;6216;51.146;7.008;2022-10-13T11:26:28;17.90;99.90
12307;DHT22;6216;51.146;7.008;2022-10-13T11:28:57;17.80;99.90
12307;DHT22;6216;51.146;7.008;2022-10-13T11:31:29;17.80;99.90
12307;DHT22;6216;51.146;7.008;2022-10-13T11:34:02;17.70;99.90
12307;DHT22;6216;51.146;7.008;2022-10-13T11:36:49;17.60;99.90
12307;DHT22;6216;51.146;7.008;2022-10-13T11:45:28;17.20;99.90
12307;DHT22;6216;51.146;7.008;2022-10-13T11:48:30;17.10;99.90
12307;DHT22;6216;51.146;7.008;2022-10-13T11:51:13;17.00;99.90
12307;DHT22;6216;51.146;7.008;2022-10-13T11:53:49;17.00;99.90
12307;DHT22;6216;51.146;7.008;2022-10-13T11:56:23;17.00;99.90
12307;DHT22;6216;51.146;7.008;2022-10-13T11:58:59;17.00;99.90
12307;DHT22;6216;51.146;7.008;2022-10-13T12:01:27;16.80;99.90
12307;DHT22;6216;51.146;7.008;2022-10-13T12:03:55;16.80;99.90
12307;DHT22;6216;51.146;7.008;2022-10-13T12:06:29;16.80;99.90
12307;DHT22;6216;51.146;7.008;2022-10-13T12:09:03;16.80;99.90
12307;DHT22;6216;51.146;7.008;2022-10-13T12:11:34;16.80;99.90
12307;DHT22;6216;51.146;7.008;2022-10-13T12:14:05;16.80;99.90
12307;DHT22;6216;51.146;7.008;2022-10-13T12:16:34;16.80;99.90
12307;DHT22;6216;51.146;7.008;2022-10-13T12:19:07;16.80;99.90
12307;DHT22;6216;51.146;7.008;2022-10-13T12:21:47;16.70;99.90
12307;DHT22;6216;51.146;7.008;2022-10-13T12:24:16;16.80;99.90
12307;DHT22;6216;51.146;7.008;2022-10-13T12:26:43;16.80;99.90
12307;DHT22;6216;51.146;7.008;2022-10-13T12:29:13;16.80;99.90
12307;DHT22;6216;51.146;7.008;2022-10-13T12:31:44;16.80;99.90
12307;DHT22;6216;51.146;7.008;2022-10-13T12:34:24;16.80;99.90
12307;DHT22;6216;51.146;7.008;2022-10-13T12:36:58;16.80;99.90
12307;DHT22;6216;51.146;7.008;2022-10-13T12:39:29;16.90;99.90
12307;DHT22;6216;51.146;7.008;2022-10-13T12:41:58;16.90;99.90
12307;DHT22;6216;51.146;7.008;2022-10-13T12:44:30;16.90;99.90
12307;DHT22;6216;51.146;7.008;2022-10-13T12:46:59;17.00;99.90
12307;DHT22;6216;51.146;7.008;2022-10-13T12:49:30;17.00;99.90
12307;DHT22;6216;51.146;7.008;2022-10-13T12:52:04;17.00;99.90
12307;DHT22;6216;51.146;7.008;2022-10-13T12:54:35;16.90;99.90
12307;DHT22;6216;51.146;7.008;2022-10-13T12:57:06;17.00;99.90
12307;DHT22;6216;51.146;7.008;2022-10-13T12:59:43;17.00;99.90
12307;DHT22;6216;51.146;7.008;2022-10-13T13:02:19;17.00;99.90
12307;DHT22;6216;51.146;7.008;2022-10-13T13:04:48;17.10;99.90
12307;DHT22;6216;51.146;7.008;2022-10-13T13:07:31;17.20;99.90
12307;DHT22;6216;51.146;7.008;2022-10-13T13:10:02;17.30;99.90
12307;DHT22;6216;51.146;7.008;2022-10-13T13:12:30;17.40;99.90
12307;DHT22;6216;51.146;7.008;2022-10-13T13:15:29;17.40;99.90
12307;DHT22;6216;51.146;7.008;2022-10-13T13:18:28;17.40;99.90
12307;DHT22;6216;51.146;7.008;2022-10-13T13:20:57;17.30;99.90
12307;DHT22;6216;51.146;7.008;2022-10-13T13:23:25;17.30;99.90
12307;DHT22;6216;51.146;7.008;2022-10-13T13:26:00;17.30;99.90
12307;DHT22;6216;51.146;7.008;2022-10-13T13:28:28;17.20;99.90
12307;DHT22;6216;51.146;7.008;2022-10-13T13:30:59;17.10;99.90
12307;DHT22;6216;51.146;7.008;2022-10-13T13:33:27;17.20;99.90
12307;DHT22;6216;51.146;7.008;2022-10-13T13:35:55;17.20;99.90
12307;DHT22;6216;51.146;7.008;2022-10-13T13:38:23;17.20;99.90
12307;DHT22;6216;51.146;7.008;2022-10-13T13:40:51;17.10;99.90
12307;DHT22;6216;51.146;7.008;2022-10-13T13:43:19;17.10;99.90
12307;DHT22;6216;51.146;7.008;2022-10-13T13:45:47;17.10;99.90
12307;DHT22;6216;51.146;7.008;2022-10-13T13:48:16;17.00;99.90
12307;DHT22;6216;51.146;7.008;2022-10-13T13:50:44;17.10;99.90
12307;DHT22;6216;51.146;7.008;2022-10-13T13:53:11;17.00;99.90
12307;DHT22;6216;51.146;7.008;2022-10-13T13:55:40;17.00;99.90
12307;DHT22;6216;51.146;7.008;2022-10-13T13:58:09;17.00;99.90
12307;DHT22;6216;51.146;7.008;2022-10-13T14:00:37;17.00;99.90
12307;DHT22;6216;51.146;7.008;2022-10-13T14:03:05;16.90;99.90
12307;DHT22;6216;51.146;7.008;2022-10-13T14:05:37;16.90;99.90
12307;DHT22;6216;51.146;7.008;2022-10-13T14:08:05;16.80;99.90
12307;DHT22;6216;51.146;7.008;2022-10-13T14:10:33;16.80;99.90
12307;DHT22;6216;51.146;7.008;2022-10-13T14:13:01;16.80;99.90
12307;DHT22;6216;51.146;7.008;2022-10-13T14:15:29;16.80;99.90
12307;DHT22;6216;51.146;7.008;2022-10-13T14:17:57;16.80;99.90
12307;DHT22;6216;51.146;7.008;2022-10-13T14:20:25;16.80;99.90
12307;DHT22;6216;51.146;7.008;2022-10-13T14:22:54;16.80;99.90
12307;DHT22;6216;51.146;7.008;2022-10-13T14:25:22;16.80;99.90
12307;DHT22;6216;51.146;7.008;2022-10-13T14:27:53;16.80;99.90
12307;DHT22;6216;51.146;7.008;2022-10-13T14:30:21;16.80;99.90
12307;DHT22;6216;51.146;7.008;2022-10-13T14:32:49;16.80;99.90
12307;DHT22;6216;51.146;7.008;2022-10-13T14:35:17;16.80;99.90
12307;DHT22;6216;51.146;7.008;2022-10-13T14:37:44;16.80;99.90
12307;DHT22;6216;51.146;7.008;2022-10-13T14:40:14;16.80;99.90
12307;DHT22;6216;51.146;7.008;2022-10-13T14:42:42;16.80;99.90
12307;DHT22;6216;51.146;7.008;2022-10-13T14:45:10;16.70;99.90
12307;DHT22;6216;51.146;7.008;2022-10-13T14:47:38;16.80;99.90
12307;DHT22;6216;51.146;7.008;2022-10-13T14:50:07;16.80;99.90
12307;DHT22;6216;51.146;7.008;2022-10-13T14:52:35;16.70;99.90
12307;DHT22;6216;51.146;7.008;2022-10-13T14:55:04;16.70;99.90
12307;DHT22;6216;51.146;7.008;2022-10-13T14:57:33;16.70;99.90
12307;DHT22;6216;51.146;7.008;2022-10-13T15:00:01;16.70;99.90
12307;DHT22;6216;51.146;7.008;2022-10-13T15:02:29;16.60;99.90
12307;DHT22;6216;51.146;7.008;2022-10-13T15:04:57;16.50;99.90
12307;DHT22;6216;51.146;7.008;2022-10-13T15:07:25;16.50;99.90
12307;DHT22;6216;51.146;7.008;2022-10-13T15:09:53;16.50;99.90
12307;DHT22;6216;51.146;7.008;2022-10-13T15:12:33;16.50;99.90
12307;DHT22;6216;51.146;7.008;2022-10-13T15:15:01;16.60;99.90
12307;DHT22;6216;51.146;7.008;2022-10-13T15:17:29;16.50;99.90
12307;DHT22;6216;51.146;7.008;2022-10-13T15:19:59;16.50;99.90
12307;DHT22;6216;51.146;7.008;2022-10-13T15:22:26;16.50;99.90
12307;DHT22;6216;51.146;7.008;2022-10-13T15:24:54;16.40;99.90
12307;DHT22;6216;51.146;7.008;2022-10-13T15:27:22;16.40;99.90
12307;DHT22;6216;51.146;7.008;2022-10-13T15:29:51;16.40;99.90
12307;DHT22;6216;51.146;7.008;2022-10-13T15:32:19;16.40;99.90
12307;DHT22;6216;51.146;7.008;2022-10-13T15:34:47;16.40;99.90
12307;DHT22;6216;51.146;7.008;2022-10-13T15:37:15;16.30;99.90
12307;DHT22;6216;51.146;7.008;2022-10-13T15:39:43;16.20;99.90
12307;DHT22;6216;51.146;7.008;2022-10-13T15:42:11;16.20;99.90
12307;DHT22;6216;51.146;7.008;2022-10-13T15:44:39;16.20;99.90
12307;DHT22;6216;51.146;7.008;2022-10-13T15:47:28;16.20;99.90
12307;DHT22;6216;51.146;7.008;2022-10-13T15:49:56;16.20;99.90
12307;DHT22;6216;51.146;7.008;2022-10-13T15:52:24;16.10;99.90
12307;DHT22;6216;51.146;7.008;2022-10-13T15:55:00;16.10;99.90
12307;DHT22;6216;51.146;7.008;2022-10-13T15:57:29;16.00;99.90
12307;DHT22;6216;51.146;7.008;2022-10-13T15:59:57;16.00;99.90
12307;DHT22;6216;51.146;7.008;2022-10-13T16:02:25;16.00;99.90
12307;DHT22;6216;51.146;7.008;2022-10-13T16:04:54;16.00;99.90
12307;DHT22;6216;51.146;7.008;2022-10-13T16:07:23;15.90;99.90
12307;DHT22;6216;51.146;7.008;2022-10-13T16:09:51;15.90;99.90
12307;DHT22;6216;51.146;7.008;2022-10-13T16:12:19;15.90;99.90
12307;DHT22;6216;51.146;7.008;2022-10-13T16:14:50;15.80;99.90
12307;DHT22;6216;51.146;7.008;2022-10-13T16:17:18;15.80;99.90
12307;DHT22;6216;51.146;7.008;2022-10-13T16:22:30;15.70;99.90
12307;DHT22;6216;51.146;7.008;2022-10-13T16:24:58;15.70;99.90
12307;DHT22;6216;51.146;7.008;2022-10-13T16:27:25;15.70;99.90